sensor_id;sensor_type;location;lat;lon;timestamp;pressure;altitude;pressure_sealevel;temperature;humidity
21574;BME280;10948;48.706;9.258;2023-01-28T00:02:14;98365.28;;;1.31;100.00
21574;BME280;10948;48.706;9.258;2023-01-28T00:04:39;98363.84;;;1.14;100.00
21574;BME280;10948;48.706;9.258;2023-01-28T00:07:04;98355.94;;;1.26;100.00
21574;BME280;10948;48.706;9.258;2023-01-28T00:09:30;98361.88;;;1.29;100.00
21574;BME280;10948;48.706;9.258;2023-01-28T00:11:55;98364.66;;;1.13;100.00
21574;BME280;10948;48.706;9.258;2023-01-28T00:14:20;98358.34;;;1.38;100.00
21574;BME280;10948;48.706;9.258;2023-01-28T00:16:45;98361.88;;;1.29;100.00
21574;BME280;10948;48.706;9.258;2023-01-28T00:19:10;98351.53;;;1.35;100.00
21574;BME280;10948;48.706;9.258;2023-01-28T00:21:36;98355.94;;;1.26;100.00
21574;BME280;10948;48.706;9.258;2023-01-28T00:24:01;98352.63;;;1.21;100.00
21574;BME280;10948;48.706;9.258;2023-01-28T00:26:26;98352.63;;;1.21;100.00
21574;BME280;10948;48.706;9.258;2023-01-28T00:28:52;98350.78;;;1.29;100.00
21574;BME280;10948;48.706;9.258;2023-01-28T00:31:18;98352.47;;;1.33;100.00
21574;BME280;10948;48.706;9.258;2023-01-28T00:33:44;98349.34;;;1.10;100.00
21574;BME280;10948;48.706;9.258;2023-01-28T00:36:10;98347.50;;;1.21;100.00
21574;BME280;10948;48.706;9.258;2023-01-28T00:38:35;98346.56;;;1.26;100.00
21574;BME280;10948;48.706;9.258;2023-01-28T00:43:33;98339.75;;;1.22;100.00
21574;BME280;10948;48.706;9.258;2023-01-28T00:45:58;98343.25;;;1.20;100.00
21574;BME280;10948;48.706;9.258;2023-01-28T00:48:23;98339.03;;;1.16;100.00
21574;BME280;10948;48.706;9.258;2023-01-28T00:50:49;98336.06;;;1.43;100.00
21574;BME280;10948;48.706;9.258;2023-01-28T00:53:14;98343.81;;;1.40;100.00
21574;BME280;10948;48.706;9.258;2023-01-28T00:55:39;98342.31;;;1.24;100.00
21574;BME280;10948;48.706;9.258;2023-01-28T00:58:04;98339.59;;;1.34;100.00
21574;BME280;10948;48.706;9.258;2023-01-28T01:00:30;98333.50;;;1.43;100.00
21574;BME280;10948;48.706;9.258;2023-01-28T01:02:55;98337.00;;;1.37;100.00
21574;BME280;10948;48.706;9.258;2023-01-28T01:05:20;98347.41;;;1.27;100.00
21574;BME280;10948;48.706;9.258;2023-01-28T01:07:46;98343.81;;;1.40;100.00
21574;BME280;10948;48.706;9.258;2023-01-28T01:10:13;98345.69;;;1.26;100.00
21574;BME280;10948;48.706;9.258;2023-01-28T01:12:38;98343.56;;;1.56;100.00
21574;BME280;10948;48.706;9.258;2023-01-28T01:15:06;98346.56;;;1.25;100.00
21574;BME280;10948;48.706;9.258;2023-01-28T01:17:38;98343.09;;;1.30;100.00
21574;BME280;10948;48.706;9.258;2023-01-28T01:20:05;98344.88;;;1.22;100.00
21574;BME280;10948;48.706;9.258;2023-01-28T01:22:34;98347.28;;;1.36;100.00
21574;BME280;10948;48.706;9.258;2023-01-28T01:24:59;98351.44;;;1.44;100.00
21574;BME280;10948;48.706;9.258;2023-01-28T01:27:25;98348.22;;;1.30;100.00
21574;BME280;10948;48.706;9.258;2023-01-28T01:29:50;98349.84;;;1.34;100.00
21574;BME280;10948;48.706;9.258;2023-01-28T01:32:15;98346.31;;;1.43;100.00
21574;BME280;10948;48.706;9.258;2023-01-28T01:34:40;98353.91;;;1.49;100.00
21574;BME280;10948;48.706;9.258;2023-01-28T01:37:06;98343.19;;;1.24;100.00
21574;BME280;10948;48.706;9.258;2023-01-28T01:39:32;98353.22;;;1.38;100.00
21574;BME280;10948;48.706;9.258;2023-01-28T01:41:57;98349.94;;;1.28;100.00
21574;BME280;10948;48.706;9.258;2023-01-28T01:47:07;98348.13;;;1.36;100.00
21574;BME280;10948;48.706;9.258;2023-01-28T01:49:32;98358.41;;;1.35;100.00
21574;BME280;10948;48.706;9.258;2023-01-28T01:52:08;98356.63;;;1.38;100.00
21574;BME280;10948;48.706;9.258;2023-01-28T01:54:34;98363.59;;;1.30;100.00
21574;BME280;10948;48.706;9.258;2023-01-28T01:57:01;98364.31;;;1.40;100.00
21574;BME280;10948;48.706;9.258;2023-01-28T01:59:28;98364.44;;;1.31;100.00
21574;BME280;10948;48.706;9.258;2023-01-28T02:01:55;98360.97;;;1.33;100.00
21574;BME280;10948;48.706;9.258;2023-01-28T02:04:28;98364.25;;;1.43;100.00
21574;BME280;10948;48.706;9.258;2023-01-28T02:06:55;98364.19;;;1.47;100.00
21574;BME280;10948;48.706;9.258;2023-01-28T02:09:29;98365.03;;;1.48;100.00
21574;BME280;10948;48.706;9.258;2023-01-28T02:11:55;98363.44;;;1.41;100.00
21574;BME280;10948;48.706;9.258;2023-01-28T02:14:23;98368.53;;;1.42;100.00
21574;BME280;10948;48.706;9.258;2023-01-28T02:16:50;98366.09;;;1.35;100.00
21574;BME280;10948;48.706;9.258;2023-01-28T02:19:15;98365.38;;;1.25;100.00
21574;BME280;10948;48.706;9.258;2023-01-28T02:21:46;98374.66;;;1.34;100.00
21574;BME280;10948;48.706;9.258;2023-01-28T02:31:37;98367.78;;;1.36;100.00
21574;BME280;10948;48.706;9.258;2023-01-28T02:36:48;98370.34;;;1.36;100.00
21574;BME280;10948;48.706;9.258;2023-01-28T02:39:17;98368.66;;;1.33;100.00
21574;BME280;10948;48.706;9.258;2023-01-28T02:44:28;98377.00;;;1.47;100.00
21574;BME280;10948;48.706;9.258;2023-01-28T02:46:53;98376.34;;;1.35;100.00
21574;BME280;10948;48.706;9.258;2023-01-28T02:49:39;98377.97;;;1.39;100.00
21574;BME280;10948;48.706;9.258;2023-01-28T02:57:29;98373.16;;;1.18;100.00
21574;BME280;10948;48.706;9.258;2023-01-28T03:07:13;98385.91;;;1.22;100.00
21574;BME280;10948;48.706;9.258;2023-01-28T03:09:41;98383.22;;;1.33;100.00
21574;BME280;10948;48.706;9.258;2023-01-28T03:12:11;98381.38;;;1.41;100.00
21574;BME280;10948;48.706;9.258;2023-01-28T03:14:58;98383.00;;;1.48;100.00
21574;BME280;10948;48.706;9.258;2023-01-28T03:20:28;98382.06;;;1.52;100.00
21574;BME280;10948;48.706;9.258;2023-01-28T03:23:17;98383.81;;;1.50;100.00
21574;BME280;10948;48.706;9.258;2023-01-28T03:26:04;98381.41;;;1.39;100.00
21574;BME280;10948;48.706;9.258;2023-01-28T03:28:51;98384.72;;;1.46;100.00
21574;BME280;10948;48.706;9.258;2023-01-28T03:31:37;98378.66;;;1.53;100.00
21574;BME280;10948;48.706;9.258;2023-01-28T03:34:21;98378.75;;;1.47;100.00
21574;BME280;10948;48.706;9.258;2023-01-28T03:37:06;98385.41;;;1.57;100.00
21574;BME280;10948;48.706;9.258;2023-01-28T03:39:32;98386.59;;;1.35;100.00
21574;BME280;10948;48.706;9.258;2023-01-28T03:42:02;98384.91;;;1.34;100.00
21574;BME280;10948;48.706;9.258;2023-01-28T03:44:28;98385.47;;;1.52;100.00
21574;BME280;10948;48.706;9.258;2023-01-28T03:47:12;98387.31;;;1.44;100.00
21574;BME280;10948;48.706;9.258;2023-01-28T03:49:38;98394.28;;;1.35;100.00
21574;BME280;10948;48.706;9.258;2023-01-28T03:52:04;98395.34;;;1.19;100.00
21574;BME280;10948;48.706;9.258;2023-01-28T03:54:29;98400.38;;;1.28;100.00
21574;BME280;10948;48.706;9.258;2023-01-28T03:56:54;98405.56;;;1.22;100.00
21574;BME280;10948;48.706;9.258;2023-01-28T03:59:19;98403.66;;;1.36;100.00
21574;BME280;10948;48.706;9.258;2023-01-28T04:01:44;98402.78;;;1.40;100.00
21574;BME280;10948;48.706;9.258;2023-01-28T04:04:10;98401.81;;;1.45;100.00
21574;BME280;10948;48.706;9.258;2023-01-28T04:06:47;98395.97;;;1.37;100.00
21574;BME280;10948;48.706;9.258;2023-01-28T04:09:12;98396.63;;;1.50;100.00
21574;BME280;10948;48.706;9.258;2023-01-28T04:11:37;98391.72;;;1.33;100.00
21574;BME280;10948;48.706;9.258;2023-01-28T04:14:02;98392.56;;;1.35;100.00
21574;BME280;10948;48.706;9.258;2023-01-28T04:16:27;98396.84;;;1.35;100.00
21574;BME280;10948;48.706;9.258;2023-01-28T04:18:53;98397.50;;;1.49;100.00
21574;BME280;10948;48.706;9.258;2023-01-28T04:21:18;98401.16;;;1.33;100.00
21574;BME280;10948;48.706;9.258;2023-01-28T04:23:43;98402.81;;;1.35;100.00
21574;BME280;10948;48.706;9.258;2023-01-28T04:26:09;98410.47;;;1.40;100.00
21574;BME280;10948;48.706;9.258;2023-01-28T04:28:34;98405.03;;;1.58;100.00
21574;BME280;10948;48.706;9.258;2023-01-28T04:30:59;98421.31;;;1.55;100.00
21574;BME280;10948;48.706;9.258;2023-01-28T04:33:24;98419.84;;;1.39;100.00
21574;BME280;10948;48.706;9.258;2023-01-28T04:35:50;98423.94;;;1.51;100.00
21574;BME280;10948;48.706;9.258;2023-01-28T04:38:15;98423.00;;;1.58;100.00
21574;BME280;10948;48.706;9.258;2023-01-28T04:40:40;98425.78;;;1.43;100.00
21574;BME280;10948;48.706;9.258;2023-01-28T04:43:05;98436.09;;;1.40;100.00
21574;BME280;10948;48.706;9.258;2023-01-28T04:45:30;98427.38;;;1.53;100.00
21574;BME280;10948;48.706;9.258;2023-01-28T04:47:56;98435.38;;;1.30;100.00
21574;BME280;10948;48.706;9.258;2023-01-28T04:50:21;98432.84;;;1.26;100.00
21574;BME280;10948;48.706;9.258;2023-01-28T04:52:46;98442.75;;;1.53;100.00
21574;BME280;10948;48.706;9.258;2023-01-28T04:55:12;98441.03;;;1.52;100.00
21574;BME280;10948;48.706;9.258;2023-01-28T04:57:37;98445.41;;;1.44;100.00
21574;BME280;10948;48.706;9.258;2023-01-28T05:00:03;98437.72;;;1.44;100.00
21574;BME280;10948;48.706;9.258;2023-01-28T05:02:29;98439.41;;;1.48;100.00
21574;BME280;10948;48.706;9.258;2023-01-28T05:04:54;98437.63;;;1.53;100.00
21574;BME280;10948;48.706;9.258;2023-01-28T05:07:19;98444.69;;;1.36;100.00
21574;BME280;10948;48.706;9.258;2023-01-28T05:09:45;98446.34;;;1.40;100.00
21574;BME280;10948;48.706;9.258;2023-01-28T05:12:10;98442.94;;;1.38;100.00
21574;BME280;10948;48.706;9.258;2023-01-28T05:14:35;98442.84;;;1.47;100.00
21574;BME280;10948;48.706;9.258;2023-01-28T05:17:00;98442.78;;;1.50;100.00
21574;BME280;10948;48.706;9.258;2023-01-28T05:19:25;98445.44;;;1.42;100.00
21574;BME280;10948;48.706;9.258;2023-01-28T05:21:51;98439.59;;;1.33;100.00
21574;BME280;10948;48.706;9.258;2023-01-28T05:24:16;98430.78;;;1.52;100.00
21574;BME280;10948;48.706;9.258;2023-01-28T05:26:41;98431.66;;;1.51;100.00
21574;BME280;10948;48.706;9.258;2023-01-28T05:29:06;98441.28;;;1.34;100.00
21574;BME280;10948;48.706;9.258;2023-01-28T05:31:32;98441.91;;;1.49;100.00
21574;BME280;10948;48.706;9.258;2023-01-28T05:33:57;98435.88;;;1.56;100.00
21574;BME280;10948;48.706;9.258;2023-01-28T05:36:22;98443.00;;;1.35;100.00
21574;BME280;10948;48.706;9.258;2023-01-28T05:38:48;98448.13;;;1.35;100.00
21574;BME280;10948;48.706;9.258;2023-01-28T05:41:13;98449.88;;;1.33;100.00
21574;BME280;10948;48.706;9.258;2023-01-28T05:43:38;98441.31;;;1.31;100.00
21574;BME280;10948;48.706;9.258;2023-01-28T05:46:04;98451.38;;;1.46;100.00
21574;BME280;10948;48.706;9.258;2023-01-28T05:48:29;98449.72;;;1.43;100.00
21574;BME280;10948;48.706;9.258;2023-01-28T05:50:55;98456.69;;;1.31;100.00
21574;BME280;10948;48.706;9.258;2023-01-28T05:53:20;98445.44;;;1.42;100.00
21574;BME280;10948;48.706;9.258;2023-01-28T05:55:48;98456.50;;;1.46;100.00
21574;BME280;10948;48.706;9.258;2023-01-28T05:58:14;98456.59;;;1.40;100.00
21574;BME280;10948;48.706;9.258;2023-01-28T06:00:39;98455.69;;;1.42;100.00
21574;BME280;10948;48.706;9.258;2023-01-28T06:03:05;98453.25;;;1.32;100.00
21574;BME280;10948;48.706;9.258;2023-01-28T06:05:30;98461.72;;;1.40;100.00
21574;BME280;10948;48.706;9.258;2023-01-28T06:07:55;98461.06;;;1.23;100.00
21574;BME280;10948;48.706;9.258;2023-01-28T06:10:20;98462.75;;;1.25;100.00
21574;BME280;10948;48.706;9.258;2023-01-28T06:12:45;98476.25;;;1.39;100.00
21574;BME280;10948;48.706;9.258;2023-01-28T06:15:11;98477.06;;;1.43;100.00
21574;BME280;10948;48.706;9.258;2023-01-28T06:17:36;98467.75;;;1.36;100.00
21574;BME280;10948;48.706;9.258;2023-01-28T06:20:01;98470.31;;;1.34;100.00
21574;BME280;10948;48.706;9.258;2023-01-28T06:22:27;98478.72;;;1.47;100.00
21574;BME280;10948;48.706;9.258;2023-01-28T06:24:52;98475.25;;;1.51;100.00
21574;BME280;10948;48.706;9.258;2023-01-28T06:27:17;98489.88;;;1.44;100.00
21574;BME280;10948;48.706;9.258;2023-01-28T06:29:42;98487.03;;;1.64;100.00
21574;BME280;10948;48.706;9.258;2023-01-28T06:32:07;98489.19;;;1.29;100.00
21574;BME280;10948;48.706;9.258;2023-01-28T06:34:33;98494.19;;;1.38;100.00
21574;BME280;10948;48.706;9.258;2023-01-28T06:36:58;98501.66;;;1.56;100.00
21574;BME280;10948;48.706;9.258;2023-01-28T06:39:23;98512.75;;;1.58;100.00
21574;BME280;10948;48.706;9.258;2023-01-28T06:41:51;98510.09;;;1.67;100.00
21574;BME280;10948;48.706;9.258;2023-01-28T06:44:16;98506.81;;;1.54;100.00
21574;BME280;10948;48.706;9.258;2023-01-28T06:46:41;98511.03;;;1.58;100.00
21574;BME280;10948;48.706;9.258;2023-01-28T06:49:07;98509.31;;;1.59;100.00
21574;BME280;10948;48.706;9.258;2023-01-28T06:51:32;98519.69;;;1.53;100.00
21574;BME280;10948;48.706;9.258;2023-01-28T06:53:57;98511.19;;;1.48;100.00
21574;BME280;10948;48.706;9.258;2023-01-28T06:56:22;98519.81;;;1.41;100.00
21574;BME280;10948;48.706;9.258;2023-01-28T06:58:48;98518.94;;;1.42;100.00
21574;BME280;10948;48.706;9.258;2023-01-28T07:01:13;98523.16;;;1.46;100.00
21574;BME280;10948;48.706;9.258;2023-01-28T07:03:38;98529.25;;;1.37;100.00
21574;BME280;10948;48.706;9.258;2023-01-28T07:06:04;98535.28;;;1.35;100.00
21574;BME280;10948;48.706;9.258;2023-01-28T07:08:29;98524.81;;;1.50;100.00
21574;BME280;10948;48.706;9.258;2023-01-28T07:10:55;98528.28;;;1.46;100.00
21574;BME280;10948;48.706;9.258;2023-01-28T07:13:20;98524.81;;;1.50;100.00
21574;BME280;10948;48.706;9.258;2023-01-28T07:15:45;98529.13;;;1.46;100.00
21574;BME280;10948;48.706;9.258;2023-01-28T07:18:11;98529.03;;;1.55;100.00
21574;BME280;10948;48.706;9.258;2023-01-28T07:20:36;98528.13;;;1.58;100.00
21574;BME280;10948;48.706;9.258;2023-01-28T07:23:01;98532.44;;;1.56;100.00
21574;BME280;10948;48.706;9.258;2023-01-28T07:25:27;98535.94;;;1.49;100.00
21574;BME280;10948;48.706;9.258;2023-01-28T07:27:52;98540.09;;;1.59;100.00
21574;BME280;10948;48.706;9.258;2023-01-28T07:30:18;98541.06;;;1.50;100.00
21574;BME280;10948;48.706;9.258;2023-01-28T07:32:43;98543.50;;;1.59;100.00
21574;BME280;10948;48.706;9.258;2023-01-28T07:35:09;98538.25;;;1.70;100.00
21574;BME280;10948;48.706;9.258;2023-01-28T07:37:34;98546.88;;;1.63;100.00
21574;BME280;10948;48.706;9.258;2023-01-28T07:40:00;98548.84;;;1.43;100.00
21574;BME280;10948;48.706;9.258;2023-01-28T07:42:25;98543.25;;;1.79;100.00
21574;BME280;10948;48.706;9.258;2023-01-28T07:44:50;98549.41;;;1.66;100.00
21574;BME280;10948;48.706;9.258;2023-01-28T07:47:15;98544.25;;;1.67;100.00
21574;BME280;10948;48.706;9.258;2023-01-28T07:49:41;98548.56;;;1.67;100.00
21574;BME280;10948;48.706;9.258;2023-01-28T07:52:06;98550.13;;;1.78;100.00
21574;BME280;10948;48.706;9.258;2023-01-28T07:54:32;98550.84;;;1.88;100.00
21574;BME280;10948;48.706;9.258;2023-01-28T07:56:57;98555.09;;;1.89;100.00
21574;BME280;10948;48.706;9.258;2023-01-28T07:59:22;98555.25;;;1.77;100.00
21574;BME280;10948;48.706;9.258;2023-01-28T08:01:47;98553.13;;;2.06;100.00
21574;BME280;10948;48.706;9.258;2023-01-28T08:04:12;98555.69;;;2.09;100.00
21574;BME280;10948;48.706;9.258;2023-01-28T08:06:38;98562.19;;;2.31;100.00
21574;BME280;10948;48.706;9.258;2023-01-28T08:09:03;98558.00;;;2.24;100.00
21574;BME280;10948;48.706;9.258;2023-01-28T08:11:30;98562.47;;;2.13;100.00
21574;BME280;10948;48.706;9.258;2023-01-28T08:13:55;98567.66;;;2.08;100.00
21574;BME280;10948;48.706;9.258;2023-01-28T08:16:20;98574.59;;;2.02;100.00
21574;BME280;10948;48.706;9.258;2023-01-28T08:18:45;98571.94;;;2.08;100.00
21574;BME280;10948;48.706;9.258;2023-01-28T08:21:11;98571.00;;;2.13;100.00
21574;BME280;10948;48.706;9.258;2023-01-28T08:23:36;98576.06;;;2.18;100.00
21574;BME280;10948;48.706;9.258;2023-01-28T08:26:02;98568.50;;;2.09;100.00
21574;BME280;10948;48.706;9.258;2023-01-28T08:28:27;98572.69;;;2.14;100.00
21574;BME280;10948;48.706;9.258;2023-01-28T08:30:52;98579.44;;;2.21;100.00
21574;BME280;10948;48.706;9.258;2023-01-28T08:33:18;98573.25;;;2.36;100.00
21574;BME280;10948;48.706;9.258;2023-01-28T08:35:44;98574.22;;;2.26;100.00
21574;BME280;10948;48.706;9.258;2023-01-28T08:38:10;98574.31;;;2.21;100.00
21574;BME280;10948;48.706;9.258;2023-01-28T08:40:36;98574.03;;;2.39;100.00
21574;BME280;10948;48.706;9.258;2023-01-28T08:43:01;98574.84;;;2.43;100.00
21574;BME280;10948;48.706;9.258;2023-01-28T08:45:27;98577.66;;;2.26;100.00
21574;BME280;10948;48.706;9.258;2023-01-28T08:47:53;98579.28;;;2.33;100.00
21574;BME280;10948;48.706;9.258;2023-01-28T08:50:19;98587.03;;;2.29;100.00
21574;BME280;10948;48.706;9.258;2023-01-28T08:52:45;98577.66;;;2.28;100.00
21574;BME280;10948;48.706;9.258;2023-01-28T08:55:11;98585.50;;;2.17;100.00
21574;BME280;10948;48.706;9.258;2023-01-28T08:57:36;98583.44;;;2.40;100.00
21574;BME280;10948;48.706;9.258;2023-01-28T09:00:02;98590.19;;;2.46;100.00
21574;BME280;10948;48.706;9.258;2023-01-28T09:02:29;98584.38;;;2.35;100.00
21574;BME280;10948;48.706;9.258;2023-01-28T09:04:55;98592.72;;;2.49;100.00
21574;BME280;10948;48.706;9.258;2023-01-28T09:07:21;98592.63;;;2.56;100.00
21574;BME280;10948;48.706;9.258;2023-01-28T09:09:46;98591.03;;;2.49;100.00
21574;BME280;10948;48.706;9.258;2023-01-28T09:12:11;98589.75;;;2.76;100.00
21574;BME280;10948;48.706;9.258;2023-01-28T09:14:36;98593.00;;;2.87;100.00
21574;BME280;10948;48.706;9.258;2023-01-28T09:17:03;98589.81;;;2.73;100.00
21574;BME280;10948;48.706;9.258;2023-01-28T09:19:28;98591.75;;;3.07;100.00
21574;BME280;10948;48.706;9.258;2023-01-28T09:21:53;98591.50;;;3.22;100.00
21574;BME280;10948;48.706;9.258;2023-01-28T09:24:19;98592.41;;;3.20;100.00
21574;BME280;10948;48.706;9.258;2023-01-28T09:26:46;98600.97;;;3.19;100.00
21574;BME280;10948;48.706;9.258;2023-01-28T09:29:12;98596.56;;;3.27;100.00
21574;BME280;10948;48.706;9.258;2023-01-28T09:31:37;98598.97;;;3.36;100.00
21574;BME280;10948;48.706;9.258;2023-01-28T09:34:02;98605.88;;;3.34;100.00
21574;BME280;10948;48.706;9.258;2023-01-28T09:36:28;98617.78;;;3.38;100.00
21574;BME280;10948;48.706;9.258;2023-01-28T09:38:53;98608.25;;;3.43;100.00
21574;BME280;10948;48.706;9.258;2023-01-28T09:43:49;98611.06;;;3.76;100.00
21574;BME280;10948;48.706;9.258;2023-01-28T09:46:18;98608.44;;;3.78;100.00
21574;BME280;10948;48.706;9.258;2023-01-28T09:48:45;98617.13;;;3.72;100.00
21574;BME280;10948;48.706;9.258;2023-01-28T09:51:21;98620.50;;;3.74;100.00
21574;BME280;10948;48.706;9.258;2023-01-28T09:53:50;98615.69;;;3.58;100.00
21574;BME280;10948;48.706;9.258;2023-01-28T09:56:21;98633.84;;;3.50;100.00
21574;BME280;10948;48.706;9.258;2023-01-28T09:58:49;98622.91;;;3.39;100.00
21574;BME280;10948;48.706;9.258;2023-01-28T10:04:29;98623.81;;;3.37;100.00
21574;BME280;10948;48.706;9.258;2023-01-28T10:09:18;98623.75;;;3.85;100.00
21574;BME280;10948;48.706;9.258;2023-01-28T10:11:51;98618.38;;;3.96;100.00
21574;BME280;10948;48.706;9.258;2023-01-28T10:19:27;98617.97;;;3.29;100.00
21574;BME280;10948;48.706;9.258;2023-01-28T10:21:56;98614.56;;;3.27;100.00
21574;BME280;10948;48.706;9.258;2023-01-28T10:24:30;98619.63;;;3.31;100.00
21574;BME280;10948;48.706;9.258;2023-01-28T10:26:57;98618.03;;;3.24;100.00
21574;BME280;10948;48.706;9.258;2023-01-28T10:29:23;98611.72;;;2.92;100.00
21574;BME280;10948;48.706;9.258;2023-01-28T10:31:51;98615.69;;;3.11;100.00
21574;BME280;10948;48.706;9.258;2023-01-28T10:34:17;98607.88;;;3.17;100.00
21574;BME280;10948;48.706;9.258;2023-01-28T10:36:43;98606.09;;;3.22;100.00
21574;BME280;10948;48.706;9.258;2023-01-28T10:39:16;98605.75;;;3.40;100.00
21574;BME280;10948;48.706;9.258;2023-01-28T10:41:42;98602.31;;;3.41;100.00
21574;BME280;10948;48.706;9.258;2023-01-28T10:44:29;98597.44;;;3.26;100.00
21574;BME280;10948;48.706;9.258;2023-01-28T10:46:56;98601.72;;;3.25;100.00
21574;BME280;10948;48.706;9.258;2023-01-28T10:49:25;98602.53;;;3.29;100.00
21574;BME280;10948;48.706;9.258;2023-01-28T10:51:51;98606.25;;;3.13;100.00
21574;BME280;10948;48.706;9.258;2023-01-28T10:54:24;98596.56;;;3.27;100.00
21574;BME280;10948;48.706;9.258;2023-01-28T10:56:56;98593.72;;;3.42;100.00
21574;BME280;10948;48.706;9.258;2023-01-28T10:59:27;98604.28;;;3.27;100.00
21574;BME280;10948;48.706;9.258;2023-01-28T11:01:53;98599.25;;;3.21;100.00
21574;BME280;10948;48.706;9.258;2023-01-28T11:04:23;98603.94;;;3.45;100.00
21574;BME280;10948;48.706;9.258;2023-01-28T11:06:53;98596.09;;;3.51;100.00
21574;BME280;10948;48.706;9.258;2023-01-28T11:09:22;98598.16;;;3.34;100.00
21574;BME280;10948;48.706;9.258;2023-01-28T11:11:48;98603.13;;;3.41;100.00
21574;BME280;10948;48.706;9.258;2023-01-28T11:14:23;98611.13;;;3.28;100.00
21574;BME280;10948;48.706;9.258;2023-01-28T11:16:49;98610.31;;;3.26;100.00
21574;BME280;10948;48.706;9.258;2023-01-28T11:19:17;98615.50;;;3.23;100.00
21574;BME280;10948;48.706;9.258;2023-01-28T11:21:46;98612.81;;;3.29;100.00
21574;BME280;10948;48.706;9.258;2023-01-28T11:24:13;98608.97;;;3.04;100.00
21574;BME280;10948;48.706;9.258;2023-01-28T11:26:39;98603.88;;;3.01;100.00
21574;BME280;10948;48.706;9.258;2023-01-28T11:29:17;98607.91;;;3.15;100.00
21574;BME280;10948;48.706;9.258;2023-01-28T11:31:44;98611.06;;;3.31;100.00
21574;BME280;10948;48.706;9.258;2023-01-28T11:34:14;98609.44;;;3.27;100.00
21574;BME280;10948;48.706;9.258;2023-01-28T11:36:48;98606.00;;;3.25;100.00
21574;BME280;10948;48.706;9.258;2023-01-28T11:39:21;98619.91;;;3.15;100.00
21574;BME280;10948;48.706;9.258;2023-01-28T11:41:48;98618.94;;;3.22;100.00
21574;BME280;10948;48.706;9.258;2023-01-28T11:44:24;98615.28;;;3.35;100.00
21574;BME280;10948;48.706;9.258;2023-01-28T11:51:47;98612.81;;;3.29;100.00
21574;BME280;10948;48.706;9.258;2023-01-28T12:01:41;98612.91;;;3.23;100.00
21574;BME280;10948;48.706;9.258;2023-01-28T12:04:16;98617.75;;;3.39;100.00
21574;BME280;10948;48.706;9.258;2023-01-28T12:09:33;98606.19;;;3.61;100.00
21574;BME280;10948;48.706;9.258;2023-01-28T12:29:31;98601.22;;;3.07;100.00
21574;BME280;10948;48.706;9.258;2023-01-28T12:44:52;98613.03;;;3.17;100.00
21574;BME280;10948;48.706;9.258;2023-01-28T12:47:21;98603.53;;;3.19;100.00
21574;BME280;10948;48.706;9.258;2023-01-28T12:49:58;98605.66;;;2.97;100.00
21574;BME280;10948;48.706;9.258;2023-01-28T12:52:29;98612.28;;;3.10;100.00
21574;BME280;10948;48.706;9.258;2023-01-28T12:54:58;98609.63;;;3.15;100.00
21574;BME280;10948;48.706;9.258;2023-01-28T12:57:29;98611.41;;;3.13;100.00
21574;BME280;10948;48.706;9.258;2023-01-28T13:00:02;98602.94;;;3.05;100.00
21574;BME280;10948;48.706;9.258;2023-01-28T13:02:34;98594.09;;;3.21;100.00
21574;BME280;10948;48.706;9.258;2023-01-28T13:05:08;98604.22;;;3.30;100.00
21574;BME280;10948;48.706;9.258;2023-01-28T13:12:36;98600.22;;;3.14;100.00
21574;BME280;10948;48.706;9.258;2023-01-28T13:15:03;98605.38;;;3.14;100.00
21574;BME280;10948;48.706;9.258;2023-01-28T13:17:31;98612.97;;;3.20;100.00
21574;BME280;10948;48.706;9.258;2023-01-28T13:19:56;98603.81;;;3.04;100.00
21574;BME280;10948;48.706;9.258;2023-01-28T13:22:32;98599.63;;;3.00;100.00
21574;BME280;10948;48.706;9.258;2023-01-28T13:27:52;98601.22;;;3.05;100.00
21574;BME280;10948;48.706;9.258;2023-01-28T13:30:22;98607.97;;;3.11;100.00
21574;BME280;10948;48.706;9.258;2023-01-28T13:35:40;98604.47;;;3.62;100.00
21574;BME280;10948;48.706;9.258;2023-01-28T13:38:06;98605.47;;;3.55;100.00
21574;BME280;10948;48.706;9.258;2023-01-28T13:40:32;98608.38;;;3.35;100.00
21574;BME280;10948;48.706;9.258;2023-01-28T13:42:59;98596.97;;;3.50;100.00
21574;BME280;10948;48.706;9.258;2023-01-28T13:45:25;98604.25;;;3.74;100.00
21574;BME280;10948;48.706;9.258;2023-01-28T13:48:17;98603.41;;;3.72;100.00
21574;BME280;10948;48.706;9.258;2023-01-28T13:50:39;98604.25;;;3.74;100.00
21574;BME280;10948;48.706;9.258;2023-01-28T13:53:21;98597.72;;;3.99;100.00
21574;BME280;10948;48.706;9.258;2023-01-28T13:55:49;98607.25;;;5.04;100.00
21574;BME280;10948;48.706;9.258;2023-01-28T14:01:19;98607.47;;;4.62;100.00
21574;BME280;10948;48.706;9.258;2023-01-28T14:09:07;98611.84;;;3.80;100.00
21574;BME280;10948;48.706;9.258;2023-01-28T14:14:31;98621.88;;;3.92;100.00
21574;BME280;10948;48.706;9.258;2023-01-28T14:19:36;98620.41;;;3.79;100.00
21574;BME280;10948;48.706;9.258;2023-01-28T14:22:08;98642.47;;;3.49;100.00
21574;BME280;10948;48.706;9.258;2023-01-28T14:24:35;98636.84;;;3.73;100.00
21574;BME280;10948;48.706;9.258;2023-01-28T14:32:23;98648.41;;;3.53;100.00
21574;BME280;10948;48.706;9.258;2023-01-28T14:34:51;98645.06;;;3.48;100.00
21574;BME280;10948;48.706;9.258;2023-01-28T14:37:17;98650.09;;;3.54;100.00
21574;BME280;10948;48.706;9.258;2023-01-28T14:39:59;98646.41;;;3.67;100.00
21574;BME280;10948;48.706;9.258;2023-01-28T14:42:30;98644.94;;;3.54;100.00
21574;BME280;10948;48.706;9.258;2023-01-28T14:45:03;98646.56;;;3.58;100.00
21574;BME280;10948;48.706;9.258;2023-01-28T14:56:43;98667.72;;;3.25;100.00
21574;BME280;10948;48.706;9.258;2023-01-28T14:58:44;98665.03;;;2.81;100.00
21574;BME280;10948;48.706;9.258;2023-01-28T15:01:24;98664.53;;;3.11;100.00
21574;BME280;10948;48.706;9.258;2023-01-28T15:03:50;98670.56;;;3.10;100.00
21574;BME280;10948;48.706;9.258;2023-01-28T15:06:16;98675.16;;;2.90;100.00
21574;BME280;10948;48.706;9.258;2023-01-28T15:08:42;98675.88;;;2.98;100.00
21574;BME280;10948;48.706;9.258;2023-01-28T15:11:08;98681.06;;;2.96;100.00
21574;BME280;10948;48.706;9.258;2023-01-28T15:13:40;98680.91;;;3.07;100.00